createdAt,value
2022-09-18T00:00:40.459Z,54.74
2022-09-18T00:03:06.865Z,54.71
2022-09-18T00:05:33.143Z,54.75
2022-09-18T00:07:59.490Z,54.71
2022-09-18T00:10:25.832Z,54.76
2022-09-18T00:12:52.177Z,54.73
2022-09-18T00:15:18.518Z,54.69
2022-09-18T00:17:44.869Z,54.71
2022-09-18T00:20:11.211Z,54.66
2022-09-18T00:22:37.555Z,54.67
2022-09-18T00:25:03.892Z,54.64
2022-09-18T00:27:30.262Z,54.60
2022-09-18T00:29:56.601Z,54.70
2022-09-18T00:32:22.950Z,54.62
2022-09-18T00:34:49.294Z,54.63
2022-09-18T00:37:15.650Z,54.63
2022-09-18T00:39:41.996Z,54.61
2022-09-18T00:42:08.342Z,54.58
2022-09-18T00:44:34.682Z,54.61
2022-09-18T00:47:01.021Z,54.57
2022-09-18T00:49:27.367Z,54.56
2022-09-18T00:51:53.712Z,54.53
2022-09-18T00:54:20.062Z,54.49
2022-09-18T00:56:46.398Z,54.50
2022-09-18T00:59:12.747Z,54.48
2022-09-18T01:01:39.128Z,54.42
2022-09-18T01:04:05.434Z,54.43
2022-09-18T01:06:31.784Z,54.48
2022-09-18T01:08:58.127Z,54.50
2022-09-18T01:11:24.479Z,54.51
2022-09-18T01:13:50.818Z,54.44
2022-09-18T01:16:17.270Z,54.43
2022-09-18T01:18:43.552Z,54.43
2022-09-18T01:21:09.900Z,54.35
2022-09-18T01:23:36.238Z,54.32
2022-09-18T01:26:02.583Z,54.33
2022-09-18T01:28:28.926Z,54.34
2022-09-18T01:30:55.356Z,54.33
2022-09-18T01:33:21.623Z,54.31
2022-09-18T01:35:47.964Z,54.32
2022-09-18T01:38:14.299Z,54.29
2022-09-18T01:40:40.721Z,54.24
2022-09-18T01:43:06.991Z,54.23
2022-09-18T01:45:33.378Z,54.17
2022-09-18T01:47:59.718Z,54.19
2022-09-18T01:50:26.052Z,54.08
2022-09-18T01:52:52.392Z,54.07
2022-09-18T01:55:18.739Z,54.06
2022-09-18T01:57:45.070Z,54.01
2022-09-18T02:00:11.414Z,53.95
2022-09-18T02:02:37.851Z,54.02
2022-09-18T02:05:04.143Z,54.03
2022-09-18T02:07:30.479Z,53.93
2022-09-18T02:09:56.827Z,53.93
2022-09-18T02:12:23.163Z,53.81
2022-09-18T02:14:49.497Z,53.60
2022-09-18T02:17:15.835Z,53.46
2022-09-18T02:19:42.178Z,53.50
2022-09-18T02:22:08.518Z,53.65
2022-09-18T02:24:34.875Z,53.64
2022-09-18T02:27:01.203Z,53.12
2022-09-18T02:29:27.549Z,53.19
2022-09-18T02:31:53.945Z,53.12
2022-09-18T02:34:20.230Z,53.10
2022-09-18T02:36:46.572Z,53.06
2022-09-18T02:39:12.927Z,53.01
2022-09-18T02:41:39.265Z,53.00
2022-09-18T02:44:05.607Z,53.00
2022-09-18T02:46:32.001Z,52.90
2022-09-18T02:48:58.295Z,53.01
2022-09-18T02:51:24.681Z,52.92
2022-09-18T02:53:51.028Z,52.84
2022-09-18T02:56:17.359Z,52.81
2022-09-18T02:58:43.711Z,52.74
2022-09-18T03:01:10.101Z,52.67
2022-09-18T03:03:36.386Z,52.72
2022-09-18T03:06:02.733Z,52.61
2022-09-18T03:08:29.082Z,52.51
2022-09-18T03:10:55.430Z,52.42
2022-09-18T03:13:21.780Z,52.40
2022-09-18T03:15:48.151Z,52.38
2022-09-18T03:18:14.488Z,52.32
2022-09-18T03:20:40.833Z,52.31
2022-09-18T03:23:07.198Z,52.27
2022-09-18T03:25:34.300Z,52.19
2022-09-18T03:28:00.673Z,52.14
2022-09-18T03:30:26.997Z,52.08
2022-09-18T03:32:53.334Z,52.00
2022-09-18T03:35:19.674Z,52.04
2022-09-18T03:37:46.015Z,52.12
2022-09-18T03:40:12.389Z,52.05
2022-09-18T03:42:38.695Z,51.89
2022-09-18T03:45:05.047Z,51.88
2022-09-18T03:47:35.668Z,51.76
2022-09-18T03:49:57.738Z,51.76
2022-09-18T03:52:24.076Z,51.77
2022-09-18T03:54:50.422Z,51.55
2022-09-18T03:57:16.776Z,51.54
2022-09-18T03:59:43.106Z,51.50
2022-09-18T04:02:09.499Z,51.42
2022-09-18T04:04:35.807Z,51.36
2022-09-18T04:07:02.163Z,51.44
2022-09-18T04:09:28.505Z,51.32
2022-09-18T04:11:54.850Z,51.31
2022-09-18T04:14:21.219Z,51.27
2022-09-18T04:16:47.574Z,51.18
2022-09-18T04:19:13.901Z,51.07
2022-09-18T04:21:40.272Z,51.10
2022-09-18T04:24:06.611Z,50.98
2022-09-18T04:26:33.001Z,50.94
2022-09-18T04:28:59.338Z,50.87
2022-09-18T04:31:25.743Z,50.83
2022-09-18T04:33:52.026Z,50.77
2022-09-18T04:36:18.375Z,50.79
2022-09-18T04:38:44.721Z,50.65
2022-09-18T04:41:11.064Z,50.60
2022-09-18T04:43:37.413Z,50.57
2022-09-18T04:46:03.757Z,50.47
2022-09-18T04:48:30.163Z,50.48
2022-09-18T04:50:56.524Z,50.40
2022-09-18T04:53:22.876Z,50.33
2022-09-18T04:55:49.226Z,50.31
2022-09-18T04:58:15.561Z,50.38
2022-09-18T05:00:41.964Z,50.25
2022-09-18T05:03:08.244Z,50.17
2022-09-18T05:05:34.589Z,50.11
2022-09-18T05:08:00.939Z,50.10
2022-09-18T05:10:27.297Z,50.06
2022-09-18T05:12:53.637Z,49.93
2022-09-18T05:15:19.987Z,49.97
2022-09-18T05:17:46.320Z,49.92
2022-09-18T05:20:12.663Z,49.91
2022-09-18T05:22:39.012Z,49.83
2022-09-18T05:25:05.362Z,49.81
2022-09-18T05:27:31.708Z,49.76
2022-09-18T05:29:58.052Z,49.75
2022-09-18T05:32:24.384Z,49.67
2022-09-18T05:34:50.723Z,49.68
2022-09-18T05:37:17.107Z,49.57
2022-09-18T05:39:43.448Z,49.53
2022-09-18T05:42:09.800Z,49.53
2022-09-18T05:44:36.133Z,49.51
2022-09-18T05:47:02.530Z,49.41
2022-09-18T05:49:28.823Z,49.39
2022-09-18T05:51:55.164Z,49.41
2022-09-18T05:54:21.513Z,49.35
2022-09-18T05:56:47.881Z,49.23
2022-09-18T05:59:14.241Z,49.30
2022-09-18T06:01:43.674Z,49.23
2022-09-18T06:04:06.939Z,49.21
2022-09-18T06:06:33.283Z,49.18
2022-09-18T06:08:59.738Z,49.18
2022-09-18T06:11:25.998Z,49.14
2022-09-18T06:13:52.368Z,48.99
2022-09-18T06:16:18.752Z,49.00
2022-09-18T06:18:45.096Z,48.99
2022-09-18T06:21:11.445Z,48.99
2022-09-18T06:23:37.820Z,48.87
2022-09-18T06:26:04.169Z,48.91
2022-09-18T06:28:30.504Z,48.78
2022-09-18T06:30:56.866Z,48.73
2022-09-18T06:33:23.186Z,48.73
2022-09-18T06:35:49.531Z,48.61
2022-09-18T06:38:15.911Z,48.61
2022-09-18T06:40:42.315Z,48.55
2022-09-18T06:43:08.605Z,48.54
2022-09-18T06:45:34.979Z,48.48
2022-09-18T06:48:01.303Z,48.51
2022-09-18T06:50:27.648Z,48.49
2022-09-18T06:52:53.994Z,48.36
2022-09-18T06:55:20.342Z,48.35
2022-09-18T06:57:46.676Z,48.33
2022-09-18T07:00:13.088Z,48.35
2022-09-18T07:02:39.513Z,48.31
2022-09-18T07:05:05.805Z,48.26
2022-09-18T07:07:32.150Z,48.22
2022-09-18T07:09:58.489Z,48.20
2022-09-18T07:12:24.845Z,48.16
2022-09-18T07:14:51.192Z,48.12
2022-09-18T07:17:19.234Z,48.07
2022-09-18T07:19:43.876Z,48.01
2022-09-18T07:22:10.218Z,48.06
2022-09-18T07:24:36.565Z,48.02
2022-09-18T07:27:02.892Z,47.91
2022-09-18T07:29:29.248Z,47.93
2022-09-18T07:31:55.595Z,47.81
2022-09-18T07:34:21.940Z,47.88
2022-09-18T07:36:48.271Z,47.86
2022-09-18T07:39:14.625Z,47.69
2022-09-18T07:41:40.973Z,47.78
2022-09-18T07:44:07.313Z,47.81
2022-09-18T07:46:33.688Z,47.72
2022-09-18T07:49:00.002Z,47.79
2022-09-18T07:51:26.626Z,47.78
2022-09-18T07:53:52.726Z,47.71
2022-09-18T07:56:19.058Z,47.69
2022-09-18T07:58:45.403Z,47.43
2022-09-18T08:01:11.739Z,47.62
2022-09-18T08:03:41.416Z,47.67
2022-09-18T08:06:04.428Z,47.51
2022-09-18T08:08:30.825Z,47.31
2022-09-18T08:10:57.197Z,47.33
2022-09-18T08:13:23.538Z,47.41
2022-09-18T08:15:49.954Z,47.29
2022-09-18T08:18:16.217Z,47.37
2022-09-18T08:20:42.598Z,47.27
2022-09-18T08:23:08.951Z,47.29
2022-09-18T08:25:35.280Z,47.25
2022-09-18T08:28:01.638Z,47.21
2022-09-18T08:30:27.975Z,47.17
2022-09-18T08:32:54.321Z,47.13
2022-09-18T08:35:20.663Z,47.05
2022-09-18T08:37:47.005Z,46.97
2022-09-18T08:40:13.399Z,47.03
2022-09-18T08:42:39.687Z,46.91
2022-09-18T08:45:06.029Z,46.78
2022-09-18T08:47:32.380Z,46.69
2022-09-18T08:49:59.064Z,46.55
2022-09-18T08:52:25.417Z,46.52
2022-09-18T08:54:51.765Z,46.34
2022-09-18T08:57:18.117Z,46.31
2022-09-18T08:59:44.460Z,46.26
2022-09-18T09:02:10.866Z,46.29
2022-09-18T09:04:37.144Z,46.15
2022-09-18T09:07:03.500Z,45.79
2022-09-18T09:09:29.852Z,45.52
2022-09-18T09:11:56.197Z,45.30
2022-09-18T09:14:39.632Z,45.18
2022-09-18T09:16:48.877Z,45.22
2022-09-18T09:19:15.211Z,44.68
2022-09-18T09:21:41.553Z,44.53
2022-09-18T09:24:07.891Z,44.06
2022-09-18T09:26:34.246Z,43.78
2022-09-18T09:29:00.601Z,43.40
2022-09-18T09:31:26.990Z,43.22
2022-09-18T09:33:53.273Z,43.11
2022-09-18T09:36:19.621Z,42.96
2022-09-18T09:38:45.964Z,42.82
2022-09-18T09:41:12.351Z,42.37
2022-09-18T09:43:38.682Z,42.12
2022-09-18T09:46:05.029Z,41.93
2022-09-18T09:48:31.389Z,41.82
2022-09-18T09:50:57.742Z,41.59
2022-09-18T09:53:24.075Z,41.41
2022-09-18T09:55:50.416Z,41.13
2022-09-18T09:58:16.765Z,40.95
2022-09-18T10:00:43.166Z,40.65
2022-09-18T10:03:09.459Z,40.58
2022-09-18T10:05:35.806Z,40.41
2022-09-18T10:08:02.137Z,40.26
2022-09-18T10:10:28.483Z,40.00
2022-09-18T10:12:54.834Z,39.90
2022-09-18T10:15:21.179Z,39.78
2022-09-18T10:17:47.529Z,39.55
2022-09-18T10:20:13.870Z,39.15
2022-09-18T10:22:40.218Z,39.01
2022-09-18T10:25:06.555Z,38.83
2022-09-18T10:27:32.899Z,38.68
2022-09-18T10:30:00.234Z,38.61
2022-09-18T10:32:25.596Z,38.55
2022-09-18T10:34:51.945Z,38.49
2022-09-18T10:37:18.294Z,38.44
2022-09-18T10:39:44.642Z,38.31
2022-09-18T10:42:10.971Z,38.19
2022-09-18T10:44:37.369Z,38.03
2022-09-18T10:47:03.769Z,38.05
2022-09-18T10:49:30.084Z,37.89
2022-09-18T10:51:56.428Z,37.80
2022-09-18T10:54:22.794Z,37.63
2022-09-18T10:56:49.111Z,37.49
2022-09-18T10:59:15.455Z,37.36
2022-09-18T11:01:44.837Z,37.35
2022-09-18T11:04:08.167Z,37.12
2022-09-18T11:06:34.522Z,37.01
2022-09-18T11:09:00.915Z,36.80
2022-09-18T11:11:27.238Z,36.65
2022-09-18T11:13:53.577Z,36.63
2022-09-18T11:16:19.943Z,36.52
2022-09-18T11:18:47.524Z,36.38
2022-09-18T11:21:12.618Z,36.29
2022-09-18T11:23:38.964Z,36.17
2022-09-18T11:26:05.333Z,36.06
2022-09-18T11:28:31.691Z,35.98
2022-09-18T11:30:58.059Z,35.91
2022-09-18T11:33:24.401Z,35.83
2022-09-18T11:38:35.070Z,35.65
2022-09-18T11:41:01.426Z,35.48
2022-09-18T11:43:27.756Z,35.42
2022-09-18T11:45:54.172Z,35.37
2022-09-18T11:48:20.516Z,35.20
2022-09-18T11:50:46.887Z,35.11
2022-09-18T11:53:13.228Z,34.98
2022-09-18T11:55:39.616Z,34.90
2022-09-18T11:58:05.942Z,34.83
2022-09-18T12:00:32.288Z,34.71
2022-09-18T12:02:58.680Z,34.62
2022-09-18T12:05:24.997Z,34.54
2022-09-18T12:07:51.389Z,34.47
2022-09-18T12:10:16.323Z,34.38
2022-09-18T12:12:42.657Z,34.29
2022-09-18T12:15:08.994Z,34.23
2022-09-18T12:17:35.341Z,34.08
2022-09-18T12:20:01.675Z,33.98
2022-09-18T12:22:28.013Z,33.89
2022-09-18T12:24:54.430Z,33.77
2022-09-18T12:27:20.760Z,33.62
2022-09-18T12:29:47.093Z,33.55
2022-09-18T12:32:13.433Z,33.43
2022-09-18T12:34:39.768Z,33.28
2022-09-18T12:37:06.099Z,32.62
2022-09-18T12:39:33.114Z,31.23
2022-09-18T12:42:00.472Z,30.75
2022-09-18T12:44:25.804Z,30.46
2022-09-18T12:46:52.150Z,30.22
2022-09-18T12:49:18.479Z,30.17
2022-09-18T12:51:44.883Z,31.02
2022-09-18T12:54:11.221Z,31.97
2022-09-18T12:56:38.504Z,32.15
2022-09-18T12:59:03.910Z,32.18
2022-09-18T13:01:30.251Z,32.11
2022-09-18T13:03:56.596Z,32.01
2022-09-18T13:06:22.968Z,31.50
2022-09-18T13:08:49.313Z,29.98
2022-09-18T13:11:15.680Z,29.42
2022-09-18T13:13:42.022Z,29.25
2022-09-18T13:16:08.407Z,29.16
2022-09-18T13:18:35.432Z,28.99
2022-09-18T13:21:01.777Z,28.93
2022-09-18T13:23:28.121Z,28.72
2022-09-18T13:25:54.459Z,28.72
2022-09-18T13:28:20.830Z,28.61
2022-09-18T13:30:47.196Z,28.54
2022-09-18T13:33:13.540Z,28.38
2022-09-18T13:35:39.889Z,28.54
2022-09-18T13:38:06.262Z,28.61
2022-09-18T13:40:32.643Z,28.57
2022-09-18T13:42:58.975Z,28.50
2022-09-18T13:45:25.285Z,28.41
2022-09-18T13:47:51.638Z,28.31
2022-09-18T13:50:17.968Z,28.30
2022-09-18T13:52:44.317Z,28.24
2022-09-18T13:55:10.649Z,28.24
2022-09-18T13:57:36.994Z,28.20
2022-09-18T14:00:03.325Z,28.24
2022-09-18T14:02:29.823Z,28.14
2022-09-18T14:04:56.154Z,28.13
2022-09-18T14:07:22.495Z,28.19
2022-09-18T14:09:48.831Z,28.53
2022-09-18T14:12:15.167Z,28.94
2022-09-18T14:14:41.506Z,29.27
2022-09-18T14:17:07.843Z,29.38
2022-09-18T14:19:34.191Z,29.47
2022-09-18T14:22:00.532Z,29.68
2022-09-18T14:24:26.879Z,29.75
2022-09-18T14:26:53.222Z,29.82
2022-09-18T14:29:19.577Z,30.00
2022-09-18T14:31:45.967Z,30.10
2022-09-18T14:34:12.254Z,30.19
2022-09-18T14:36:38.593Z,30.27
2022-09-18T14:39:04.935Z,30.37
2022-09-18T14:41:31.284Z,30.46
2022-09-18T14:43:57.619Z,30.47
2022-09-18T14:46:23.965Z,30.63
2022-09-18T14:48:50.313Z,30.68
2022-09-18T14:51:16.665Z,30.68
2022-09-18T14:53:43.043Z,30.84
2022-09-18T14:56:09.392Z,30.84
2022-09-18T14:58:35.727Z,31.04
2022-09-18T15:01:02.136Z,31.10
2022-09-18T15:03:28.419Z,31.10
2022-09-18T15:05:54.759Z,30.74
2022-09-18T15:08:24.659Z,31.19
2022-09-18T15:10:47.444Z,31.55
2022-09-18T15:13:13.809Z,32.03
2022-09-18T15:15:40.166Z,32.23
2022-09-18T15:18:06.516Z,32.52
2022-09-18T15:20:32.871Z,32.69
2022-09-18T15:22:59.219Z,32.88
2022-09-18T15:25:25.568Z,33.06
2022-09-18T15:27:51.914Z,33.07
2022-09-18T15:30:18.260Z,33.22
2022-09-18T15:32:44.618Z,33.45
2022-09-18T15:35:10.973Z,33.41
2022-09-18T15:37:38.546Z,33.56
2022-09-18T15:40:04.995Z,33.88
2022-09-18T15:42:31.245Z,33.96
2022-09-18T15:44:57.600Z,33.96
2022-09-18T15:47:23.946Z,34.12
2022-09-18T15:49:50.298Z,34.09
2022-09-18T15:52:16.644Z,34.06
2022-09-18T15:54:42.991Z,34.17
2022-09-18T15:57:09.361Z,34.18
2022-09-18T15:59:35.720Z,34.15
2022-09-18T16:02:02.107Z,34.15
2022-09-18T16:04:29.488Z,34.30
2022-09-18T16:06:54.736Z,34.29
2022-09-18T16:09:21.115Z,34.29
2022-09-18T16:11:47.469Z,34.29
2022-09-18T16:14:13.814Z,34.11
2022-09-18T16:16:40.221Z,33.89
2022-09-18T16:19:06.504Z,33.75
2022-09-18T16:21:32.846Z,33.77
2022-09-18T16:23:59.220Z,33.72
2022-09-18T16:26:25.562Z,33.72
2022-09-18T16:28:51.900Z,33.68
2022-09-18T16:31:18.334Z,33.70
2022-09-18T16:33:47.985Z,33.71
2022-09-18T16:36:10.976Z,33.75
2022-09-18T16:38:37.320Z,33.77
2022-09-18T16:41:03.668Z,33.78
2022-09-18T16:43:30.020Z,33.79
2022-09-18T16:45:56.399Z,33.86
2022-09-18T16:48:22.704Z,33.90
2022-09-18T16:50:49.046Z,33.96
2022-09-18T16:53:15.385Z,33.88
2022-09-18T16:55:41.726Z,33.95
2022-09-18T16:58:08.074Z,34.01
2022-09-18T17:00:34.428Z,34.05
2022-09-18T17:03:00.767Z,34.10
2022-09-18T17:05:27.098Z,34.12
2022-09-18T17:07:53.440Z,34.14
2022-09-18T17:10:19.795Z,34.14
2022-09-18T17:12:46.137Z,34.13
2022-09-18T17:15:12.478Z,34.22
2022-09-18T17:17:38.812Z,34.21
2022-09-18T17:20:05.153Z,34.27
2022-09-18T17:22:31.484Z,34.33
2022-09-18T17:24:57.863Z,34.37
2022-09-18T17:27:24.203Z,34.34
2022-09-18T17:29:50.766Z,34.45
2022-09-18T17:32:17.103Z,34.44
2022-09-18T17:34:43.446Z,34.50
2022-09-18T17:37:09.775Z,34.52
2022-09-18T17:39:36.121Z,34.52
2022-09-18T17:42:02.461Z,34.54
2022-09-18T17:44:28.802Z,34.57
2022-09-18T17:46:55.200Z,34.60
2022-09-18T17:49:21.484Z,34.63
2022-09-18T17:51:47.828Z,34.67
2022-09-18T17:54:14.164Z,34.67
2022-09-18T17:56:40.503Z,34.68
2022-09-18T17:59:06.844Z,34.70
2022-09-18T18:01:33.212Z,34.73
2022-09-18T18:03:59.553Z,34.74
2022-09-18T18:06:25.897Z,34.72
2022-09-18T18:08:52.239Z,34.63
2022-09-18T18:11:18.584Z,34.71
2022-09-18T18:13:44.925Z,34.75
2022-09-18T18:16:11.372Z,34.77
2022-09-18T18:18:37.644Z,34.72
2022-09-18T18:21:04.012Z,34.85
2022-09-18T18:23:30.380Z,34.74
2022-09-18T18:25:56.712Z,34.81
2022-09-18T18:28:23.086Z,34.88
2022-09-18T18:30:49.432Z,34.83
2022-09-18T18:33:15.782Z,34.89
2022-09-18T18:35:42.117Z,34.88
2022-09-18T18:38:08.463Z,34.91
2022-09-18T18:40:34.847Z,34.90
2022-09-18T18:43:01.160Z,34.88
2022-09-18T18:45:27.494Z,34.79
2022-09-18T18:47:53.834Z,34.82
2022-09-18T18:50:20.168Z,34.86
2022-09-18T18:52:46.516Z,34.88
2022-09-18T18:55:12.844Z,34.91
2022-09-18T18:57:39.190Z,34.87
2022-09-18T19:00:05.530Z,34.91
2022-09-18T19:02:31.875Z,34.94
2022-09-18T19:04:58.205Z,34.91
2022-09-18T19:07:24.552Z,34.93
2022-09-18T19:09:50.898Z,34.97
2022-09-18T19:12:17.244Z,34.99
2022-09-18T19:14:43.578Z,34.99
2022-09-18T19:17:09.922Z,35.01
2022-09-18T19:19:36.262Z,35.01
2022-09-18T19:22:02.626Z,35.07
2022-09-18T19:24:28.957Z,35.08
2022-09-18T19:26:55.295Z,35.06
2022-09-18T19:29:21.642Z,35.15
2022-09-18T19:31:48.099Z,35.23
2022-09-18T19:34:14.332Z,35.24
2022-09-18T19:36:40.676Z,35.25
2022-09-18T19:39:07.008Z,35.30
2022-09-18T19:41:33.353Z,35.32
2022-09-18T19:43:59.687Z,35.31
2022-09-18T19:46:26.085Z,35.35
2022-09-18T19:48:53.401Z,35.31
2022-09-18T19:51:19.753Z,35.35
2022-09-18T19:53:46.096Z,35.31
2022-09-18T19:56:32.980Z,35.35
2022-09-18T19:58:38.815Z,35.39
2022-09-18T20:01:05.260Z,35.39
2022-09-18T20:03:31.552Z,35.39
2022-09-18T20:05:57.892Z,35.42
2022-09-18T20:08:24.225Z,35.42
2022-09-18T20:10:50.598Z,35.42
2022-09-18T20:13:16.939Z,35.43
2022-09-18T20:15:43.284Z,35.48
2022-09-18T20:18:09.650Z,35.53
2022-09-18T20:23:20.273Z,35.48
2022-09-18T20:25:46.605Z,35.54
2022-09-18T20:28:13.030Z,35.55
2022-09-18T20:30:39.385Z,35.56
2022-09-18T20:33:05.739Z,35.56
2022-09-18T20:35:32.075Z,35.60
2022-09-18T20:37:58.414Z,35.62
2022-09-18T20:40:24.794Z,35.63
2022-09-18T20:42:51.127Z,35.59
2022-09-18T20:45:17.470Z,35.67
2022-09-18T20:47:43.877Z,35.66
2022-09-18T20:50:10.218Z,35.67
2022-09-18T20:52:36.591Z,35.71
2022-09-18T20:55:02.931Z,35.71
2022-09-18T20:57:29.272Z,35.79
2022-09-18T20:59:55.604Z,35.75
2022-09-18T21:02:21.996Z,35.84
2022-09-18T21:04:48.303Z,35.83
2022-09-18T21:07:14.710Z,35.81
2022-09-18T21:09:41.054Z,35.85
2022-09-18T21:12:07.401Z,35.90
2022-09-18T21:14:33.749Z,35.87
2022-09-18T21:17:00.086Z,35.86
2022-09-18T21:19:26.503Z,35.92
2022-09-18T21:21:52.800Z,35.96
2022-09-18T21:24:19.139Z,35.92
2022-09-18T21:26:45.487Z,35.94
2022-09-18T21:29:11.856Z,36.00
2022-09-18T21:31:38.219Z,35.93
2022-09-18T21:34:04.548Z,35.97
2022-09-18T21:36:30.885Z,35.98
2022-09-18T21:38:57.216Z,36.00
2022-09-18T21:41:23.574Z,36.00
2022-09-18T21:43:49.983Z,36.04
2022-09-18T21:46:16.293Z,36.08
2022-09-18T21:48:42.584Z,36.06
2022-09-18T21:51:08.936Z,36.12
2022-09-18T21:53:35.279Z,36.15
2022-09-18T21:56:01.624Z,36.13
2022-09-18T21:58:27.973Z,36.10
2022-09-18T22:00:54.336Z,36.11
2022-09-18T22:03:20.670Z,36.10
2022-09-18T22:05:47.005Z,36.11
2022-09-18T22:08:13.349Z,36.11
2022-09-18T22:10:39.688Z,36.17
2022-09-18T22:13:06.027Z,36.11
2022-09-18T22:15:32.399Z,36.15
2022-09-18T22:17:58.739Z,36.12
2022-09-18T22:20:25.086Z,36.10
2022-09-18T22:22:51.436Z,36.16
2022-09-18T22:25:17.781Z,36.22
2022-09-18T22:27:45.063Z,36.19
2022-09-18T22:30:10.471Z,36.19
2022-09-18T22:32:36.806Z,36.29
2022-09-18T22:35:03.152Z,36.38
2022-09-18T22:37:29.502Z,36.34
2022-09-18T22:39:55.947Z,36.42
2022-09-18T22:42:22.219Z,36.43
2022-09-18T22:44:48.561Z,36.46
2022-09-18T22:47:14.913Z,36.47
2022-09-18T22:49:41.309Z,36.42
2022-09-18T22:52:07.677Z,36.43
2022-09-18T22:54:34.025Z,36.40
2022-09-18T22:57:00.405Z,36.35
2022-09-18T22:59:26.740Z,36.47
2022-09-18T23:01:53.124Z,36.47
2022-09-18T23:04:19.479Z,36.49
2022-09-18T23:06:45.775Z,36.42
2022-09-18T23:09:12.239Z,36.47
2022-09-18T23:11:38.582Z,36.42
2022-09-18T23:14:04.927Z,36.51
2022-09-18T23:16:31.288Z,36.42
2022-09-18T23:18:57.618Z,36.38
2022-09-18T23:21:23.951Z,36.38
2022-09-18T23:23:50.295Z,36.40
2022-09-18T23:26:16.642Z,36.39
2022-09-18T23:28:43.001Z,36.50
2022-09-18T23:31:09.372Z,36.54
2022-09-18T23:33:35.684Z,36.53
2022-09-18T23:36:02.039Z,36.50
2022-09-18T23:38:28.380Z,36.53
2022-09-18T23:40:54.745Z,36.50
2022-09-18T23:43:21.088Z,36.65
2022-09-18T23:45:47.467Z,36.78
2022-09-18T23:48:13.809Z,36.63
2022-09-18T23:50:42.367Z,36.63
2022-09-18T23:53:08.717Z,36.72
2022-09-18T23:55:35.052Z,36.70
2022-09-18T23:58:01.406Z,36.73
